sensor_id;sensor_type;location;lat;lon;timestamp;pressure;altitude;pressure_sealevel;temperature;humidity
27712;BME280;2377;51.734;8.950;2022-10-16T00:01:21;97451.94;;;14.59;90.75
27712;BME280;2377;51.734;8.950;2022-10-16T00:03:49;97447.06;;;14.58;90.72
27712;BME280;2377;51.734;8.950;2022-10-16T00:06:19;97451.19;;;14.59;91.03
27712;BME280;2377;51.734;8.950;2022-10-16T00:08:48;97464.28;;;14.57;90.95
27712;BME280;2377;51.734;8.950;2022-10-16T00:11:20;97464.28;;;14.57;91.11
27712;BME280;2377;51.734;8.950;2022-10-16T00:13:50;97465.31;;;14.56;90.96
27712;BME280;2377;51.734;8.950;2022-10-16T00:16:18;97466.31;;;14.55;90.99
27712;BME280;2377;51.734;8.950;2022-10-16T00:18:45;97455.03;;;14.56;90.85
27712;BME280;2377;51.734;8.950;2022-10-16T00:21:15;97466.31;;;14.55;91.13
27712;BME280;2377;51.734;8.950;2022-10-16T00:23:44;97461.97;;;14.56;91.04
27712;BME280;2377;51.734;8.950;2022-10-16T00:26:17;97467.88;;;14.56;90.96
27712;BME280;2377;51.734;8.950;2022-10-16T00:28:46;97460.94;;;14.57;91.14
27712;BME280;2377;51.734;8.950;2022-10-16T00:31:15;97464.00;;;14.54;91.42
27712;BME280;2377;51.734;8.950;2022-10-16T00:33:43;97466.59;;;14.54;91.22
27712;BME280;2377;51.734;8.950;2022-10-16T00:36:16;97459.63;;;14.54;91.09
27712;BME280;2377;51.734;8.950;2022-10-16T00:38:44;97454.97;;;14.51;91.19
27712;BME280;2377;51.734;8.950;2022-10-16T00:41:17;97447.78;;;14.53;91.04
27712;BME280;2377;51.734;8.950;2022-10-16T00:43:48;97444.69;;;14.51;90.84
27712;BME280;2377;51.734;8.950;2022-10-16T00:46:20;97446.72;;;14.49;91.07
27712;BME280;2377;51.734;8.950;2022-10-16T00:48:52;97448.53;;;14.49;91.07
27712;BME280;2377;51.734;8.950;2022-10-16T00:51:26;97448.75;;;14.47;90.86
27712;BME280;2377;51.734;8.950;2022-10-16T00:53:55;97453.13;;;14.47;90.58
27712;BME280;2377;51.734;8.950;2022-10-16T00:56:24;97458.28;;;14.47;90.64
27712;BME280;2377;51.734;8.950;2022-10-16T00:58:51;97462.63;;;14.46;90.67
27712;BME280;2377;51.734;8.950;2022-10-16T01:01:19;97451.28;;;14.42;90.40
27712;BME280;2377;51.734;8.950;2022-10-16T01:03:46;97455.38;;;14.38;90.06
27712;BME280;2377;51.734;8.950;2022-10-16T01:06:24;97446.84;;;14.32;90.44
27712;BME280;2377;51.734;8.950;2022-10-16T01:09:13;97451.69;;;14.29;90.13
27712;BME280;2377;51.734;8.950;2022-10-16T01:11:57;97466.03;;;14.25;90.12
27712;BME280;2377;51.734;8.950;2022-10-16T01:14:40;97470.16;;;14.21;90.18
27712;BME280;2377;51.734;8.950;2022-10-16T01:17:15;97470.38;;;14.19;90.31
27712;BME280;2377;51.734;8.950;2022-10-16T01:20:04;97464.16;;;14.15;90.07
27712;BME280;2377;51.734;8.950;2022-10-16T01:22:45;97467.47;;;14.10;90.45
27712;BME280;2377;51.734;8.950;2022-10-16T01:25:25;97466.94;;;14.08;90.64
27712;BME280;2377;51.734;8.950;2022-10-16T01:27:59;97469.50;;;14.08;90.54
27712;BME280;2377;51.734;8.950;2022-10-16T01:30:32;97474.91;;;14.07;90.29
27712;BME280;2377;51.734;8.950;2022-10-16T01:33:08;97481.31;;;14.04;90.15
27712;BME280;2377;51.734;8.950;2022-10-16T01:35:41;97474.84;;;14.02;90.44
27712;BME280;2377;51.734;8.950;2022-10-16T01:38:16;97479.19;;;14.01;90.26
27712;BME280;2377;51.734;8.950;2022-10-16T01:40:51;97480.72;;;13.97;90.40
27712;BME280;2377;51.734;8.950;2022-10-16T01:43:25;97481.19;;;13.94;90.71
27712;BME280;2377;51.734;8.950;2022-10-16T01:45:55;97483.47;;;13.90;90.97
27712;BME280;2377;51.734;8.950;2022-10-16T01:48:24;97488.84;;;13.89;91.03
27712;BME280;2377;51.734;8.950;2022-10-16T01:50:59;97487.84;;;13.90;90.51
27712;BME280;2377;51.734;8.950;2022-10-16T01:53:29;97488.56;;;13.85;91.07
27712;BME280;2377;51.734;8.950;2022-10-16T01:55:59;97484.38;;;13.79;90.98
27712;BME280;2377;51.734;8.950;2022-10-16T01:58:33;97488.47;;;13.80;90.67
27712;BME280;2377;51.734;8.950;2022-10-16T02:01:03;97496.44;;;13.79;90.87
27712;BME280;2377;51.734;8.950;2022-10-16T02:03:33;97499.78;;;13.79;90.81
27712;BME280;2377;51.734;8.950;2022-10-16T02:06:01;97509.03;;;13.80;90.82
27712;BME280;2377;51.734;8.950;2022-10-16T02:08:29;97491.06;;;13.80;90.90
27712;BME280;2377;51.734;8.950;2022-10-16T02:10:58;97499.56;;;13.81;91.00
27712;BME280;2377;51.734;8.950;2022-10-16T02:13:34;97497.22;;;13.79;90.60
27712;BME280;2377;51.734;8.950;2022-10-16T02:16:03;97498.75;;;13.80;90.78
27712;BME280;2377;51.734;8.950;2022-10-16T02:18:30;97495.97;;;13.82;90.76
27712;BME280;2377;51.734;8.950;2022-10-16T02:21:01;97513.94;;;13.82;90.68
27712;BME280;2377;51.734;8.950;2022-10-16T02:23:51;97504.16;;;13.79;90.58
27712;BME280;2377;51.734;8.950;2022-10-16T02:26:28;97501.81;;;13.77;90.67
27712;BME280;2377;51.734;8.950;2022-10-16T02:29:04;97507.72;;;13.78;90.89
27712;BME280;2377;51.734;8.950;2022-10-16T02:31:36;97510.56;;;13.76;90.93
27712;BME280;2377;51.734;8.950;2022-10-16T02:34:07;97507.66;;;13.72;91.07
27712;BME280;2377;51.734;8.950;2022-10-16T02:36:38;97500.19;;;13.71;91.22
27712;BME280;2377;51.734;8.950;2022-10-16T02:39:07;97497.63;;;13.71;91.41
27712;BME280;2377;51.734;8.950;2022-10-16T02:41:36;97498.66;;;13.70;91.36
27712;BME280;2377;51.734;8.950;2022-10-16T02:44:04;97486.59;;;13.70;91.09
27712;BME280;2377;51.734;8.950;2022-10-16T02:46:31;97490.19;;;13.69;91.21
27712;BME280;2377;51.734;8.950;2022-10-16T02:48:58;97499.97;;;13.72;91.62
27712;BME280;2377;51.734;8.950;2022-10-16T02:51:25;97497.41;;;13.72;91.47
27712;BME280;2377;51.734;8.950;2022-10-16T02:53:53;97490.72;;;13.71;91.20
27712;BME280;2377;51.734;8.950;2022-10-16T02:56:20;97503.56;;;13.71;91.23
27712;BME280;2377;51.734;8.950;2022-10-16T02:58:47;97499.97;;;13.72;91.58
27712;BME280;2377;51.734;8.950;2022-10-16T03:01:15;97492.75;;;13.69;91.35
27712;BME280;2377;51.734;8.950;2022-10-16T03:03:43;97498.13;;;13.68;91.65
27712;BME280;2377;51.734;8.950;2022-10-16T03:06:10;97495.53;;;13.68;91.69
27712;BME280;2377;51.734;8.950;2022-10-16T03:08:37;97495.81;;;13.66;91.66
27712;BME280;2377;51.734;8.950;2022-10-16T03:11:04;97497.84;;;13.64;91.67
27712;BME280;2377;51.734;8.950;2022-10-16T03:13:31;97498.84;;;13.63;91.68
27712;BME280;2377;51.734;8.950;2022-10-16T03:15:58;97497.28;;;13.62;91.41
27712;BME280;2377;51.734;8.950;2022-10-16T03:18:27;97501.13;;;13.60;91.90
27712;BME280;2377;51.734;8.950;2022-10-16T03:20:54;97505.47;;;13.59;92.09
27712;BME280;2377;51.734;8.950;2022-10-16T03:23:21;97503.91;;;13.58;91.86
27712;BME280;2377;51.734;8.950;2022-10-16T03:25:48;97506.72;;;13.57;91.65
27712;BME280;2377;51.734;8.950;2022-10-16T03:28:15;97496.94;;;13.53;92.13
27712;BME280;2377;51.734;8.950;2022-10-16T03:30:43;97498.94;;;13.51;92.31
27712;BME280;2377;51.734;8.950;2022-10-16T03:33:10;97500.22;;;13.49;92.71
27712;BME280;2377;51.734;8.950;2022-10-16T03:35:38;97495.84;;;13.49;92.60
27712;BME280;2377;51.734;8.950;2022-10-16T03:38:05;97497.63;;;13.49;93.09
27712;BME280;2377;51.734;8.950;2022-10-16T03:40:32;97507.41;;;13.52;92.96
27712;BME280;2377;51.734;8.950;2022-10-16T03:42:59;97507.69;;;13.50;92.83
27712;BME280;2377;51.734;8.950;2022-10-16T03:45:27;97511.03;;;13.51;93.00
27712;BME280;2377;51.734;8.950;2022-10-16T03:47:54;97510.00;;;13.52;93.15
27712;BME280;2377;51.734;8.950;2022-10-16T03:50:21;97510.00;;;13.52;92.89
27712;BME280;2377;51.734;8.950;2022-10-16T03:52:49;97512.03;;;13.50;92.82
27712;BME280;2377;51.734;8.950;2022-10-16T03:55:16;97502.78;;;13.49;92.63
27712;BME280;2377;51.734;8.950;2022-10-16T03:57:43;97502.53;;;13.50;92.54
27712;BME280;2377;51.734;8.950;2022-10-16T04:00:12;97509.47;;;13.50;92.82
27712;BME280;2377;51.734;8.950;2022-10-16T04:02:39;97507.91;;;13.49;92.49
27712;BME280;2377;51.734;8.950;2022-10-16T04:05:07;97520.19;;;13.47;92.66
27712;BME280;2377;51.734;8.950;2022-10-16T04:07:34;97522.00;;;13.46;92.91
27712;BME280;2377;51.734;8.950;2022-10-16T04:10:05;97519.44;;;13.46;93.03
27712;BME280;2377;51.734;8.950;2022-10-16T04:12:32;97510.41;;;13.44;92.58
27712;BME280;2377;51.734;8.950;2022-10-16T04:14:59;97513.22;;;13.42;92.70
27712;BME280;2377;51.734;8.950;2022-10-16T04:17:26;97513.00;;;13.44;92.83
27712;BME280;2377;51.734;8.950;2022-10-16T04:19:53;97508.88;;;13.43;92.68
27712;BME280;2377;51.734;8.950;2022-10-16T04:22:20;97503.75;;;13.43;92.46
27712;BME280;2377;51.734;8.950;2022-10-16T04:24:47;97502.94;;;13.42;92.24
27712;BME280;2377;51.734;8.950;2022-10-16T04:27:16;97502.94;;;13.42;92.17
27712;BME280;2377;51.734;8.950;2022-10-16T04:29:43;97515.00;;;13.42;92.63
27712;BME280;2377;51.734;8.950;2022-10-16T04:32:10;97517.34;;;13.43;92.23
27712;BME280;2377;51.734;8.950;2022-10-16T04:34:39;97528.63;;;13.42;92.59
27712;BME280;2377;51.734;8.950;2022-10-16T04:37:06;97526.03;;;13.42;92.69
27712;BME280;2377;51.734;8.950;2022-10-16T04:39:33;97520.91;;;13.42;92.66
27712;BME280;2377;51.734;8.950;2022-10-16T04:42:00;97520.16;;;13.42;92.66
27712;BME280;2377;51.734;8.950;2022-10-16T04:44:29;97538.88;;;13.42;92.55
27712;BME280;2377;51.734;8.950;2022-10-16T04:46:56;97543.25;;;13.42;92.75
27712;BME280;2377;51.734;8.950;2022-10-16T04:49:23;97531.97;;;13.43;92.87
27712;BME280;2377;51.734;8.950;2022-10-16T04:51:50;97526.84;;;13.43;93.17
27712;BME280;2377;51.734;8.950;2022-10-16T04:54:17;97534.28;;;13.44;93.09
27712;BME280;2377;51.734;8.950;2022-10-16T04:56:44;97533.53;;;13.44;93.14
27712;BME280;2377;51.734;8.950;2022-10-16T04:59:14;97541.78;;;13.46;92.75
27712;BME280;2377;51.734;8.950;2022-10-16T05:01:43;97543.03;;;13.43;92.80
27712;BME280;2377;51.734;8.950;2022-10-16T05:04:11;97549.69;;;13.44;92.93
27712;BME280;2377;51.734;8.950;2022-10-16T05:06:41;97555.59;;;13.45;92.69
27712;BME280;2377;51.734;8.950;2022-10-16T05:09:09;97549.41;;;13.41;93.33
27712;BME280;2377;51.734;8.950;2022-10-16T05:11:36;97556.09;;;13.42;93.27
27712;BME280;2377;51.734;8.950;2022-10-16T05:14:03;97553.28;;;13.43;93.15
27712;BME280;2377;51.734;8.950;2022-10-16T05:16:30;97558.16;;;13.45;93.13
27712;BME280;2377;51.734;8.950;2022-10-16T05:18:59;97564.63;;;13.47;93.21
27712;BME280;2377;51.734;8.950;2022-10-16T05:21:26;97563.63;;;13.48;93.26
27712;BME280;2377;51.734;8.950;2022-10-16T05:23:53;97569.31;;;13.50;92.88
27712;BME280;2377;51.734;8.950;2022-10-16T05:26:21;97565.16;;;13.49;93.47
27712;BME280;2377;51.734;8.950;2022-10-16T05:28:49;97577.25;;;13.49;93.13
27712;BME280;2377;51.734;8.950;2022-10-16T05:31:16;97583.16;;;13.49;93.87
27712;BME280;2377;51.734;8.950;2022-10-16T05:33:44;97578.56;;;13.51;93.74
27712;BME280;2377;51.734;8.950;2022-10-16T05:36:12;97582.69;;;13.52;93.47
27712;BME280;2377;51.734;8.950;2022-10-16T05:38:39;97575.75;;;13.53;93.26
27712;BME280;2377;51.734;8.950;2022-10-16T05:41:06;97577.06;;;13.56;93.70
27712;BME280;2377;51.734;8.950;2022-10-16T05:43:33;97572.72;;;13.56;93.12
27712;BME280;2377;51.734;8.950;2022-10-16T05:46:03;97573.25;;;13.58;93.24
27712;BME280;2377;51.734;8.950;2022-10-16T05:48:31;97575.28;;;13.56;93.30
27712;BME280;2377;51.734;8.950;2022-10-16T05:51:00;97578.88;;;13.55;93.06
27712;BME280;2377;51.734;8.950;2022-10-16T05:53:32;97584.22;;;13.53;93.21
27712;BME280;2377;51.734;8.950;2022-10-16T05:55:59;97589.59;;;13.52;93.13
27712;BME280;2377;51.734;8.950;2022-10-16T05:58:30;97600.13;;;13.50;92.95
27712;BME280;2377;51.734;8.950;2022-10-16T06:01:00;97609.63;;;13.50;93.54
27712;BME280;2377;51.734;8.950;2022-10-16T06:03:28;97611.16;;;13.51;93.48
27712;BME280;2377;51.734;8.950;2022-10-16T06:05:55;97604.00;;;13.53;93.45
27712;BME280;2377;51.734;8.950;2022-10-16T06:08:23;97611.94;;;13.51;93.42
27712;BME280;2377;51.734;8.950;2022-10-16T06:11:02;97623.44;;;13.49;93.56
27712;BME280;2377;51.734;8.950;2022-10-16T06:13:30;97625.47;;;13.47;93.82
27712;BME280;2377;51.734;8.950;2022-10-16T06:15:58;97629.06;;;13.46;93.54
27712;BME280;2377;51.734;8.950;2022-10-16T06:18:26;97625.47;;;13.47;94.03
27712;BME280;2377;51.734;8.950;2022-10-16T06:20:53;97623.69;;;13.47;93.93
27712;BME280;2377;51.734;8.950;2022-10-16T06:23:21;97632.94;;;13.48;94.09
27712;BME280;2377;51.734;8.950;2022-10-16T06:25:48;97633.94;;;13.47;94.02
27712;BME280;2377;51.734;8.950;2022-10-16T06:28:17;97640.44;;;13.50;94.10
27712;BME280;2377;51.734;8.950;2022-10-16T06:30:44;97662.75;;;13.49;94.59
27712;BME280;2377;51.734;8.950;2022-10-16T06:33:11;97638.63;;;13.50;94.93
27712;BME280;2377;51.734;8.950;2022-10-16T06:35:39;97643.53;;;13.52;94.98
27712;BME280;2377;51.734;8.950;2022-10-16T06:38:06;97646.34;;;13.50;95.19
27712;BME280;2377;51.734;8.950;2022-10-16T06:40:33;97648.66;;;13.52;95.20
27712;BME280;2377;51.734;8.950;2022-10-16T06:43:00;97666.19;;;13.55;95.45
27712;BME280;2377;51.734;8.950;2022-10-16T06:45:28;97664.69;;;13.59;95.48
27712;BME280;2377;51.734;8.950;2022-10-16T06:47:55;97671.69;;;13.64;95.85
27712;BME280;2377;51.734;8.950;2022-10-16T06:50:22;97668.72;;;13.72;95.75
27712;BME280;2377;51.734;8.950;2022-10-16T06:52:49;97666.69;;;13.74;95.45
27712;BME280;2377;51.734;8.950;2022-10-16T06:55:16;97675.72;;;13.77;95.64
27712;BME280;2377;51.734;8.950;2022-10-16T06:57:46;97675.03;;;13.81;95.16
27712;BME280;2377;51.734;8.950;2022-10-16T07:00:14;97677.66;;;13.86;95.58
27712;BME280;2377;51.734;8.950;2022-10-16T07:02:42;97687.22;;;13.91;95.38
27712;BME280;2377;51.734;8.950;2022-10-16T07:05:09;97702.41;;;13.92;95.59
27712;BME280;2377;51.734;8.950;2022-10-16T07:07:36;97696.78;;;13.95;96.04
27712;BME280;2377;51.734;8.950;2022-10-16T07:10:04;97689.38;;;13.99;95.81
27712;BME280;2377;51.734;8.950;2022-10-16T07:12:31;97700.19;;;14.01;95.95
27712;BME280;2377;51.734;8.950;2022-10-16T07:14:58;97706.44;;;14.05;95.85
27712;BME280;2377;51.734;8.950;2022-10-16T07:17:26;97706.50;;;14.10;96.24
27712;BME280;2377;51.734;8.950;2022-10-16T07:19:54;97701.41;;;14.15;96.32
27712;BME280;2377;51.734;8.950;2022-10-16T07:22:21;97703.53;;;14.19;96.47
27712;BME280;2377;51.734;8.950;2022-10-16T07:24:48;97712.84;;;14.25;96.59
27712;BME280;2377;51.734;8.950;2022-10-16T07:27:17;97727.81;;;14.28;96.35
27712;BME280;2377;51.734;8.950;2022-10-16T07:29:44;97730.44;;;14.33;96.35
27712;BME280;2377;51.734;8.950;2022-10-16T07:32:11;97739.69;;;14.34;96.37
27712;BME280;2377;51.734;8.950;2022-10-16T07:34:38;97725.13;;;14.40;96.05
27712;BME280;2377;51.734;8.950;2022-10-16T07:37:07;97732.59;;;14.41;96.18
27712;BME280;2377;51.734;8.950;2022-10-16T07:39:34;97742.72;;;14.48;96.11
27712;BME280;2377;51.734;8.950;2022-10-16T07:42:01;97737.88;;;14.51;96.13
27712;BME280;2377;51.734;8.950;2022-10-16T07:44:28;97728.22;;;14.58;95.48
27712;BME280;2377;51.734;8.950;2022-10-16T07:46:55;97742.66;;;14.65;95.92
27712;BME280;2377;51.734;8.950;2022-10-16T07:49:23;97753.56;;;14.72;95.95
27712;BME280;2377;51.734;8.950;2022-10-16T07:51:50;97756.72;;;14.79;95.35
27712;BME280;2377;51.734;8.950;2022-10-16T07:54:19;97766.06;;;14.85;94.78
27712;BME280;2377;51.734;8.950;2022-10-16T07:56:46;97758.41;;;14.90;94.73
27712;BME280;2377;51.734;8.950;2022-10-16T07:59:13;97765.72;;;14.98;94.74
27712;BME280;2377;51.734;8.950;2022-10-16T08:01:40;97777.59;;;15.05;93.92
27712;BME280;2377;51.734;8.950;2022-10-16T08:04:09;97771.97;;;15.08;93.34
27712;BME280;2377;51.734;8.950;2022-10-16T08:06:38;97777.22;;;15.18;92.78
27712;BME280;2377;51.734;8.950;2022-10-16T08:09:06;97774.19;;;15.26;93.21
27712;BME280;2377;51.734;8.950;2022-10-16T08:11:35;97779.16;;;15.33;92.54
27712;BME280;2377;51.734;8.950;2022-10-16T08:14:02;97783.13;;;15.40;91.80
27712;BME280;2377;51.734;8.950;2022-10-16T08:16:29;97790.78;;;15.35;91.83
27712;BME280;2377;51.734;8.950;2022-10-16T08:18:56;97790.72;;;15.57;91.98
27712;BME280;2377;51.734;8.950;2022-10-16T08:21:24;97789.59;;;15.75;91.87
27712;BME280;2377;51.734;8.950;2022-10-16T08:23:53;97788.25;;;16.00;92.02
27712;BME280;2377;51.734;8.950;2022-10-16T08:26:20;97783.72;;;16.17;89.96
27712;BME280;2377;51.734;8.950;2022-10-16T08:28:51;97791.88;;;16.46;89.77
27712;BME280;2377;51.734;8.950;2022-10-16T08:31:18;97796.78;;;16.53;87.87
27712;BME280;2377;51.734;8.950;2022-10-16T08:33:46;97797.28;;;16.45;86.46
27712;BME280;2377;51.734;8.950;2022-10-16T08:36:14;97805.19;;;16.28;85.96
27712;BME280;2377;51.734;8.950;2022-10-16T08:38:42;97796.38;;;16.19;86.25
27712;BME280;2377;51.734;8.950;2022-10-16T08:41:34;97809.59;;;16.33;86.54
27712;BME280;2377;51.734;8.950;2022-10-16T08:47:19;97823.97;;;16.66;85.54
27712;BME280;2377;51.734;8.950;2022-10-16T08:49:57;97829.22;;;16.81;84.65
27712;BME280;2377;51.734;8.950;2022-10-16T08:52:30;97836.81;;;16.98;84.05
27712;BME280;2377;51.734;8.950;2022-10-16T08:54:59;97835.28;;;17.13;82.49
27712;BME280;2377;51.734;8.950;2022-10-16T08:57:26;97833.78;;;17.27;82.14
27712;BME280;2377;51.734;8.950;2022-10-16T09:00:00;97838.47;;;17.45;81.14
27712;BME280;2377;51.734;8.950;2022-10-16T09:02:38;97845.75;;;17.64;81.82
27712;BME280;2377;51.734;8.950;2022-10-16T09:05:44;97851.22;;;17.83;79.83
27712;BME280;2377;51.734;8.950;2022-10-16T09:08:27;97846.28;;;17.91;79.66
27712;BME280;2377;51.734;8.950;2022-10-16T09:11:00;97852.78;;;18.09;78.40
27712;BME280;2377;51.734;8.950;2022-10-16T09:13:43;97861.31;;;18.25;77.92
27712;BME280;2377;51.734;8.950;2022-10-16T09:16:19;97864.13;;;18.44;77.25
27712;BME280;2377;51.734;8.950;2022-10-16T09:18:58;97862.81;;;18.36;76.89
27712;BME280;2377;51.734;8.950;2022-10-16T09:21:30;97873.44;;;18.35;76.89
27712;BME280;2377;51.734;8.950;2022-10-16T09:24:00;97871.13;;;18.23;77.31
27712;BME280;2377;51.734;8.950;2022-10-16T09:26:34;97876.81;;;18.35;76.88
27712;BME280;2377;51.734;8.950;2022-10-16T09:29:03;97877.06;;;18.29;76.74
27712;BME280;2377;51.734;8.950;2022-10-16T09:31:32;97878.91;;;18.03;76.51
27712;BME280;2377;51.734;8.950;2022-10-16T09:34:04;97874.75;;;17.96;77.56
27712;BME280;2377;51.734;8.950;2022-10-16T09:36:40;97882.25;;;17.93;77.86
27712;BME280;2377;51.734;8.950;2022-10-16T09:39:11;97884.84;;;17.83;77.60
27712;BME280;2377;51.734;8.950;2022-10-16T09:41:41;97882.75;;;17.85;77.34
27712;BME280;2377;51.734;8.950;2022-10-16T09:44:22;97894.16;;;17.99;77.45
27712;BME280;2377;51.734;8.950;2022-10-16T09:47:03;97886.13;;;17.90;75.37
27712;BME280;2377;51.734;8.950;2022-10-16T09:49:31;97891.56;;;17.84;76.62
27712;BME280;2377;51.734;8.950;2022-10-16T09:52:09;97891.03;;;17.82;73.99
27712;BME280;2377;51.734;8.950;2022-10-16T09:54:48;97889.22;;;17.82;74.71
27712;BME280;2377;51.734;8.950;2022-10-16T09:57:16;97898.22;;;17.80;74.84
27712;BME280;2377;51.734;8.950;2022-10-16T09:59:48;97902.69;;;17.94;75.51
27712;BME280;2377;51.734;8.950;2022-10-16T10:02:20;97895.72;;;17.95;74.05
27712;BME280;2377;51.734;8.950;2022-10-16T10:04:52;97903.97;;;17.92;74.46
27712;BME280;2377;51.734;8.950;2022-10-16T10:07:25;97899.59;;;17.87;72.85
27712;BME280;2377;51.734;8.950;2022-10-16T10:09:56;97905.25;;;18.20;74.12
27712;BME280;2377;51.734;8.950;2022-10-16T10:12:25;97902.94;;;18.49;72.92
27712;BME280;2377;51.734;8.950;2022-10-16T10:14:55;97916.13;;;18.63;72.36
27712;BME280;2377;51.734;8.950;2022-10-16T10:17:26;97915.06;;;18.64;69.86
27712;BME280;2377;51.734;8.950;2022-10-16T10:19:56;97917.66;;;18.74;70.60
27712;BME280;2377;51.734;8.950;2022-10-16T10:22:31;97922.31;;;18.88;70.35
27712;BME280;2377;51.734;8.950;2022-10-16T10:25:26;97923.34;;;18.66;68.25
27712;BME280;2377;51.734;8.950;2022-10-16T10:28:38;97930.09;;;18.67;67.21
27712;BME280;2377;51.734;8.950;2022-10-16T10:31:17;97928.53;;;18.87;70.10
27712;BME280;2377;51.734;8.950;2022-10-16T10:33:58;97934.44;;;19.08;69.60
27712;BME280;2377;51.734;8.950;2022-10-16T10:36:33;97936.97;;;19.23;67.37
27712;BME280;2377;51.734;8.950;2022-10-16T10:39:07;97937.72;;;19.23;65.80
27712;BME280;2377;51.734;8.950;2022-10-16T10:42:00;97938.28;;;19.15;66.04
27712;BME280;2377;51.734;8.950;2022-10-16T10:47:48;97926.59;;;19.23;65.32
27712;BME280;2377;51.734;8.950;2022-10-16T10:50:26;97933.09;;;19.20;62.98
27712;BME280;2377;51.734;8.950;2022-10-16T10:53:05;97938.31;;;19.10;62.68
27712;BME280;2377;51.734;8.950;2022-10-16T10:55:44;97938.31;;;19.10;62.43
27712;BME280;2377;51.734;8.950;2022-10-16T10:58:38;97937.31;;;18.86;62.16
27712;BME280;2377;51.734;8.950;2022-10-16T11:01:13;97937.06;;;18.92;63.28
27712;BME280;2377;51.734;8.950;2022-10-16T11:04:06;97938.13;;;18.86;62.87
27712;BME280;2377;51.734;8.950;2022-10-16T11:06:44;97936.53;;;18.95;64.41
27712;BME280;2377;51.734;8.950;2022-10-16T11:09:19;97944.53;;;19.04;63.73
27712;BME280;2377;51.734;8.950;2022-10-16T11:11:52;97953.34;;;19.08;64.54
27712;BME280;2377;51.734;8.950;2022-10-16T11:14:28;97953.88;;;19.00;63.01
27712;BME280;2377;51.734;8.950;2022-10-16T11:17:01;97955.19;;;19.03;63.56
27712;BME280;2377;51.734;8.950;2022-10-16T11:19:39;97949.22;;;18.97;61.98
27712;BME280;2377;51.734;8.950;2022-10-16T11:22:16;97951.28;;;19.05;63.37
27712;BME280;2377;51.734;8.950;2022-10-16T11:24:51;97946.34;;;19.09;63.21
27712;BME280;2377;51.734;8.950;2022-10-16T11:27:30;97950.50;;;19.10;62.32
27712;BME280;2377;51.734;8.950;2022-10-16T11:30:06;97945.00;;;19.16;62.69
27712;BME280;2377;51.734;8.950;2022-10-16T11:32:54;97944.25;;;19.16;63.26
27712;BME280;2377;51.734;8.950;2022-10-16T11:35:38;97949.19;;;19.17;63.13
27712;BME280;2377;51.734;8.950;2022-10-16T11:38:19;97944.53;;;19.14;62.87
27712;BME280;2377;51.734;8.950;2022-10-16T11:40:53;97939.56;;;19.18;63.12
27712;BME280;2377;51.734;8.950;2022-10-16T11:43:28;97945.56;;;19.13;62.53
27712;BME280;2377;51.734;8.950;2022-10-16T11:46:02;97950.22;;;19.11;63.31
27712;BME280;2377;51.734;8.950;2022-10-16T11:48:39;97949.19;;;19.07;63.84
27712;BME280;2377;51.734;8.950;2022-10-16T11:51:19;97943.78;;;19.04;63.88
27712;BME280;2377;51.734;8.950;2022-10-16T11:54:00;97952.06;;;18.95;63.67
27712;BME280;2377;51.734;8.950;2022-10-16T11:56:32;97946.41;;;18.93;63.53
27712;BME280;2377;51.734;8.950;2022-10-16T11:59:08;97955.47;;;18.96;64.57
27712;BME280;2377;51.734;8.950;2022-10-16T12:01:47;97954.38;;;19.02;62.72
27712;BME280;2377;51.734;8.950;2022-10-16T12:04:25;97949.19;;;19.07;62.42
27712;BME280;2377;51.734;8.950;2022-10-16T12:07:04;97952.56;;;19.13;62.47
27712;BME280;2377;51.734;8.950;2022-10-16T12:09:39;97944.53;;;19.14;61.41
27712;BME280;2377;51.734;8.950;2022-10-16T12:12:25;97950.00;;;19.03;61.71
27712;BME280;2377;51.734;8.950;2022-10-16T12:15:01;97949.00;;;18.93;61.78
27712;BME280;2377;51.734;8.950;2022-10-16T12:17:36;97952.13;;;18.80;60.68
27712;BME280;2377;51.734;8.950;2022-10-16T12:20:28;97950.06;;;18.77;61.21
27712;BME280;2377;51.734;8.950;2022-10-16T12:23:00;97949.28;;;18.82;62.99
27712;BME280;2377;51.734;8.950;2022-10-16T12:25:31;97953.91;;;18.90;62.53
27712;BME280;2377;51.734;8.950;2022-10-16T12:28:03;97957.78;;;19.03;62.92
27712;BME280;2377;51.734;8.950;2022-10-16T12:30:34;97951.53;;;19.09;61.71
27712;BME280;2377;51.734;8.950;2022-10-16T12:33:05;97953.31;;;19.13;61.55
27712;BME280;2377;51.734;8.950;2022-10-16T12:35:42;97953.31;;;19.13;62.04
27712;BME280;2377;51.734;8.950;2022-10-16T12:38:18;97958.53;;;19.08;61.67
27712;BME280;2377;51.734;8.950;2022-10-16T12:40:58;97959.81;;;19.11;62.12
27712;BME280;2377;51.734;8.950;2022-10-16T12:43:39;97960.06;;;19.19;63.38
27712;BME280;2377;51.734;8.950;2022-10-16T12:46:33;97970.94;;;19.21;61.38
27712;BME280;2377;51.734;8.950;2022-10-16T12:49:31;97971.44;;;19.23;62.03
27712;BME280;2377;51.734;8.950;2022-10-16T12:51:58;97977.69;;;19.17;61.34
27712;BME280;2377;51.734;8.950;2022-10-16T12:54:30;97971.44;;;19.18;61.00
27712;BME280;2377;51.734;8.950;2022-10-16T12:57:21;97977.41;;;19.19;62.58
27712;BME280;2377;51.734;8.950;2022-10-16T13:00:03;97979.19;;;19.23;61.89
27712;BME280;2377;51.734;8.950;2022-10-16T13:06:07;97986.94;;;19.39;61.67
27712;BME280;2377;51.734;8.950;2022-10-16T13:09:14;97982.00;;;19.42;61.31
27712;BME280;2377;51.734;8.950;2022-10-16T13:12:08;97996.75;;;19.52;61.41
27712;BME280;2377;51.734;8.950;2022-10-16T13:15:12;97996.22;;;19.55;60.88
27712;BME280;2377;51.734;8.950;2022-10-16T13:17:53;98006.81;;;19.59;61.78
27712;BME280;2377;51.734;8.950;2022-10-16T13:20:34;98005.53;;;19.61;61.12
27712;BME280;2377;51.734;8.950;2022-10-16T13:23:14;98011.50;;;19.62;61.04
27712;BME280;2377;51.734;8.950;2022-10-16T13:25:56;98018.75;;;19.60;61.06
27712;BME280;2377;51.734;8.950;2022-10-16T13:28:32;98015.91;;;19.61;60.46
27712;BME280;2377;51.734;8.950;2022-10-16T13:31:02;98014.81;;;19.68;60.75
27712;BME280;2377;51.734;8.950;2022-10-16T13:33:35;98018.47;;;19.67;60.85
27712;BME280;2377;51.734;8.950;2022-10-16T13:36:05;98035.34;;;19.64;60.64
27712;BME280;2377;51.734;8.950;2022-10-16T13:38:35;98031.19;;;19.63;60.56
27712;BME280;2377;51.734;8.950;2022-10-16T13:41:05;98025.25;;;19.57;60.26
27712;BME280;2377;51.734;8.950;2022-10-16T13:43:38;98026.03;;;19.58;59.98
27712;BME280;2377;51.734;8.950;2022-10-16T13:46:12;98015.41;;;19.54;60.36